createdAt,value
2023-03-06T00:00:20.281Z,3.80
2023-03-06T00:02:47.071Z,3.80
2023-03-06T00:05:14.840Z,3.80
2023-03-06T00:07:41.939Z,3.90
2023-03-06T00:10:12.198Z,3.90
2023-03-06T00:12:38.859Z,3.90
2023-03-06T00:15:06.161Z,4.00
2023-03-06T00:17:32.866Z,3.90
2023-03-06T00:19:59.511Z,3.90
2023-03-06T00:22:26.653Z,3.90
2023-03-06T00:24:54.161Z,3.90
2023-03-06T00:27:23.879Z,3.90
2023-03-06T00:29:57.884Z,3.90
2023-03-06T00:32:25.290Z,3.90
2023-03-06T00:34:53.134Z,3.80
2023-03-06T00:37:20.673Z,3.80
2023-03-06T00:39:47.352Z,3.90
2023-03-06T00:42:15.699Z,3.90
2023-03-06T00:44:42.359Z,3.80
2023-03-06T00:47:09.396Z,3.90
2023-03-06T00:49:36.032Z,3.80
2023-03-06T00:52:03.106Z,3.80
2023-03-06T00:54:29.767Z,3.90
2023-03-06T00:56:56.484Z,3.90
2023-03-06T00:59:23.145Z,3.80
2023-03-06T01:01:51.790Z,3.80
2023-03-06T01:04:18.513Z,3.80
2023-03-06T01:06:45.203Z,3.90
2023-03-06T01:09:11.846Z,3.90
2023-03-06T01:11:38.509Z,3.90
2023-03-06T01:14:05.313Z,4.00
2023-03-06T01:16:32.160Z,3.90
2023-03-06T01:18:58.928Z,3.90
2023-03-06T01:21:25.991Z,3.90
2023-03-06T01:23:52.694Z,3.90
2023-03-06T01:26:19.412Z,3.90
2023-03-06T01:28:46.144Z,3.80
2023-03-06T01:31:13.106Z,3.80
2023-03-06T01:33:40.016Z,3.80
2023-03-06T01:36:09.075Z,3.80
2023-03-06T01:38:36.227Z,3.80
2023-03-06T01:41:04.742Z,3.80
2023-03-06T01:43:37.030Z,3.80
2023-03-06T01:46:24.930Z,3.80
2023-03-06T01:49:18.451Z,3.70
2023-03-06T01:51:53.940Z,3.80
2023-03-06T01:54:44.656Z,3.80
2023-03-06T01:57:20.373Z,3.70
2023-03-06T01:59:52.974Z,3.70
2023-03-06T02:02:20.761Z,3.70
2023-03-06T02:04:47.812Z,3.70
2023-03-06T02:07:16.520Z,3.70
2023-03-06T02:09:43.191Z,3.60
2023-03-06T02:12:12.647Z,3.60
2023-03-06T02:14:41.180Z,3.60
2023-03-06T02:17:10.534Z,3.70
2023-03-06T02:20:13.070Z,3.70
2023-03-06T02:23:03.040Z,3.70
2023-03-06T02:25:43.175Z,3.70
2023-03-06T02:28:14.297Z,3.60
2023-03-06T02:30:42.745Z,3.60
2023-03-06T02:33:22.482Z,3.70
2023-03-06T02:36:13.367Z,3.70
2023-03-06T02:38:49.825Z,3.70
2023-03-06T02:41:17.384Z,3.80
2023-03-06T02:43:48.799Z,3.80
2023-03-06T02:46:15.627Z,3.80
2023-03-06T02:48:42.414Z,3.80
2023-03-06T02:51:09.130Z,3.80
2023-03-06T02:53:35.826Z,3.80
2023-03-06T02:56:02.513Z,3.80
2023-03-06T02:58:29.233Z,3.80
2023-03-06T03:00:55.932Z,3.80
2023-03-06T03:03:22.998Z,3.80
2023-03-06T03:05:49.636Z,3.80
2023-03-06T03:08:23.446Z,3.80
2023-03-06T03:10:55.742Z,3.80
2023-03-06T03:13:23.749Z,3.80
2023-03-06T03:16:06.140Z,3.70
2023-03-06T03:18:34.204Z,3.70
2023-03-06T03:21:01.443Z,3.70
2023-03-06T03:23:28.558Z,3.70
2023-03-06T03:26:16.520Z,3.70
2023-03-06T03:28:48.187Z,3.70
2023-03-06T03:31:17.791Z,3.70
2023-03-06T03:33:44.607Z,3.60
2023-03-06T03:36:12.473Z,3.70
2023-03-06T03:38:42.417Z,3.70
2023-03-06T03:41:10.194Z,3.70
2023-03-06T03:43:36.919Z,3.70
2023-03-06T03:46:03.840Z,3.70
2023-03-06T03:48:30.986Z,3.70
2023-03-06T03:51:08.813Z,3.80
2023-03-06T03:53:39.377Z,3.80
2023-03-06T03:56:07.443Z,3.70
2023-03-06T03:58:39.760Z,3.70
2023-03-06T04:01:07.053Z,3.70
2023-03-06T04:03:34.404Z,3.80
2023-03-06T04:06:02.034Z,3.80
2023-03-06T04:08:29.025Z,3.80
2023-03-06T04:10:56.314Z,3.80
2023-03-06T04:13:24.167Z,3.80
2023-03-06T04:15:53.100Z,3.80
2023-03-06T04:18:23.064Z,3.80
2023-03-06T04:20:50.205Z,3.80
2023-03-06T04:23:18.605Z,3.80
2023-03-06T04:25:45.992Z,3.80
2023-03-06T04:28:13.342Z,3.90
2023-03-06T04:30:40.069Z,3.80
2023-03-06T04:33:07.738Z,3.80
2023-03-06T04:35:35.131Z,3.80
2023-03-06T04:38:06.853Z,3.80
2023-03-06T04:40:35.076Z,3.70
2023-03-06T04:43:04.087Z,3.70
2023-03-06T04:45:32.446Z,3.70
2023-03-06T04:47:59.331Z,3.70
2023-03-06T04:50:28.300Z,3.70
2023-03-06T04:52:55.003Z,3.70
2023-03-06T04:55:21.668Z,3.70
2023-03-06T04:57:48.625Z,3.70
2023-03-06T05:00:19.585Z,3.70
2023-03-06T05:02:47.422Z,3.70
2023-03-06T05:05:15.405Z,3.70
2023-03-06T05:07:42.280Z,3.70
2023-03-06T05:10:12.603Z,3.70
2023-03-06T05:12:39.545Z,3.60
2023-03-06T05:15:07.677Z,3.70
2023-03-06T05:17:34.483Z,3.60
2023-03-06T05:20:01.248Z,3.60
2023-03-06T05:22:27.941Z,3.70
2023-03-06T05:24:54.578Z,3.60
2023-03-06T05:27:21.325Z,3.70
2023-03-06T05:29:48.024Z,3.70
2023-03-06T05:32:16.193Z,3.70
2023-03-06T05:34:42.941Z,3.70
2023-03-06T05:37:09.617Z,3.70
2023-03-06T05:39:36.256Z,3.70
2023-03-06T05:42:02.961Z,3.70
2023-03-06T05:44:33.711Z,3.70
2023-03-06T05:47:00.748Z,3.80
2023-03-06T05:49:32.604Z,3.70
2023-03-06T05:51:59.599Z,4.00
2023-03-06T05:54:26.775Z,3.90
2023-03-06T05:56:53.573Z,3.70
2023-03-06T05:59:20.595Z,3.80
2023-03-06T06:01:47.286Z,3.80
2023-03-06T06:04:13.942Z,3.80
2023-03-06T06:06:40.619Z,3.80
2023-03-06T06:09:07.253Z,3.80
2023-03-06T06:11:33.969Z,3.80
2023-03-06T06:14:00.614Z,3.80
2023-03-06T06:16:27.248Z,3.70
2023-03-06T06:18:53.874Z,3.70
2023-03-06T06:21:20.832Z,3.70
2023-03-06T06:23:47.521Z,3.60
2023-03-06T06:26:14.221Z,3.60
2023-03-06T06:28:40.934Z,3.70
2023-03-06T06:31:12.145Z,3.80
2023-03-06T06:33:40.046Z,3.80
2023-03-06T06:36:18.816Z,3.70
2023-03-06T06:38:45.572Z,3.60
2023-03-06T06:41:36.075Z,3.70
2023-03-06T06:43:59.215Z,3.80
2023-03-06T06:47:10.806Z,3.80
2023-03-06T06:49:14.132Z,3.80
2023-03-06T06:51:41.695Z,3.90
2023-03-06T06:54:08.447Z,3.80
2023-03-06T06:56:35.291Z,3.80
2023-03-06T06:59:15.698Z,3.80
2023-03-06T07:01:43.801Z,3.90
2023-03-06T07:04:13.429Z,3.90
2023-03-06T07:06:40.761Z,3.90
2023-03-06T07:09:07.521Z,3.80
2023-03-06T07:11:34.217Z,3.70
2023-03-06T07:14:01.794Z,3.70
2023-03-06T07:16:28.527Z,3.80
2023-03-06T07:18:55.330Z,3.90
2023-03-06T07:21:22.026Z,4.00
2023-03-06T07:23:48.710Z,4.00
2023-03-06T07:26:15.377Z,4.00
2023-03-06T07:28:51.934Z,4.00
2023-03-06T07:31:24.383Z,4.10
2023-03-06T07:33:52.653Z,4.10
2023-03-06T07:36:20.314Z,4.10
2023-03-06T07:38:47.431Z,4.10
2023-03-06T07:41:16.250Z,4.20
2023-03-06T07:43:44.265Z,4.30
2023-03-06T07:46:14.147Z,4.30
2023-03-06T07:48:41.798Z,4.40
2023-03-06T07:51:13.611Z,4.40
2023-03-06T07:53:40.297Z,4.40
2023-03-06T07:56:08.951Z,4.40
2023-03-06T07:58:38.019Z,4.40
2023-03-06T08:01:11.164Z,4.40
2023-03-06T08:03:38.164Z,4.30
2023-03-06T08:06:16.848Z,4.20
2023-03-06T08:08:45.709Z,4.30
2023-03-06T08:11:14.970Z,4.30
2023-03-06T08:13:41.873Z,4.30
2023-03-06T08:16:09.569Z,4.40
2023-03-06T08:18:39.437Z,4.20
2023-03-06T08:21:11.911Z,4.20
2023-03-06T08:23:39.470Z,4.40
2023-03-06T08:26:14.488Z,4.50
2023-03-06T08:28:41.467Z,4.40
2023-03-06T08:31:27.091Z,4.50
2023-03-06T08:33:55.143Z,4.40
2023-03-06T08:36:22.248Z,4.20
2023-03-06T08:38:48.915Z,4.30
2023-03-06T08:41:15.692Z,4.00
2023-03-06T08:43:42.767Z,4.20
2023-03-06T08:46:10.537Z,4.20
2023-03-06T08:48:37.536Z,4.30
2023-03-06T08:51:04.460Z,4.50
2023-03-06T08:53:42.592Z,4.70
2023-03-06T08:56:42.755Z,5.00
2023-03-06T08:59:11.914Z,5.00
2023-03-06T09:01:39.031Z,5.00
2023-03-06T09:04:11.618Z,4.90
2023-03-06T09:06:41.427Z,5.20
2023-03-06T09:09:08.820Z,5.20
2023-03-06T09:11:35.894Z,5.20
2023-03-06T09:14:02.831Z,4.90
2023-03-06T09:16:29.531Z,5.00
2023-03-06T09:18:57.790Z,5.00
2023-03-06T09:21:26.076Z,4.90
2023-03-06T09:23:52.775Z,4.80
2023-03-06T09:26:19.613Z,5.10
2023-03-06T09:28:47.002Z,5.00
2023-03-06T09:31:19.238Z,5.00
2023-03-06T09:33:46.869Z,5.10
2023-03-06T09:36:19.389Z,5.10
2023-03-06T09:38:48.300Z,5.00
2023-03-06T09:41:39.178Z,5.00
2023-03-06T09:44:08.710Z,5.20
2023-03-06T09:47:03.666Z,5.40
2023-03-06T09:50:11.735Z,5.40
2023-03-06T09:53:08.663Z,5.40
2023-03-06T09:55:40.190Z,5.50
2023-03-06T09:58:19.975Z,5.60
2023-03-06T10:00:51.323Z,5.70
2023-03-06T10:03:25.722Z,5.50
2023-03-06T10:06:22.417Z,5.50
2023-03-06T10:09:00.564Z,5.70
2023-03-06T10:11:47.173Z,5.60
2023-03-06T10:14:35.015Z,5.80
2023-03-06T10:17:02.320Z,6.00
2023-03-06T10:19:37.519Z,6.10
2023-03-06T10:22:07.334Z,6.10
2023-03-06T10:25:02.592Z,6.30
2023-03-06T10:27:47.898Z,6.10
2023-03-06T10:30:32.851Z,5.90
2023-03-06T10:33:02.692Z,5.60
2023-03-06T10:35:47.532Z,5.30
2023-03-06T10:38:19.594Z,5.40
2023-03-06T10:40:57.996Z,5.30
2023-03-06T10:43:25.638Z,5.50
2023-03-06T10:45:53.578Z,5.70
2023-03-06T10:48:23.903Z,5.90
2023-03-06T10:50:51.547Z,6.20
2023-03-06T10:53:29.037Z,6.50
2023-03-06T10:56:00.997Z,6.70
2023-03-06T10:58:30.116Z,6.80
2023-03-06T11:01:09.360Z,6.70
2023-03-06T11:03:37.425Z,6.30
2023-03-06T11:06:13.193Z,6.50
2023-03-06T11:08:42.482Z,6.80
2023-03-06T11:11:36.376Z,6.80
2023-03-06T11:14:15.172Z,6.60
2023-03-06T11:16:52.657Z,6.70
2023-03-06T11:19:25.591Z,6.90
2023-03-06T11:22:01.160Z,7.20
2023-03-06T11:24:40.512Z,7.10
2023-03-06T11:27:30.387Z,7.50
2023-03-06T11:29:59.626Z,7.70
2023-03-06T11:32:40.372Z,6.90
2023-03-06T11:35:21.199Z,6.60
2023-03-06T11:37:53.094Z,6.80
2023-03-06T11:40:37.268Z,6.70
2023-03-06T11:43:07.180Z,6.90
2023-03-06T11:45:44.824Z,7.10
2023-03-06T11:48:14.504Z,6.90
2023-03-06T11:51:03.868Z,6.70
2023-03-06T11:53:34.836Z,6.50
2023-03-06T11:56:19.147Z,6.10
2023-03-06T11:59:03.215Z,6.10
2023-03-06T12:01:47.042Z,6.10
2023-03-06T12:04:30.693Z,6.40
2023-03-06T12:07:25.784Z,6.30
2023-03-06T12:13:05.310Z,6.20
2023-03-06T12:16:09.571Z,6.60
2023-03-06T12:18:39.096Z,6.80
2023-03-06T12:21:17.060Z,6.70
2023-03-06T12:23:52.648Z,6.70
2023-03-06T12:26:33.973Z,6.90
2023-03-06T12:29:18.828Z,7.00
2023-03-06T12:32:04.408Z,7.00
2023-03-06T12:34:34.553Z,7.00
2023-03-06T12:37:08.004Z,7.20
2023-03-06T12:39:42.726Z,7.00
2023-03-06T12:42:23.387Z,6.80
2023-03-06T12:45:30.092Z,6.90
2023-03-06T12:47:58.230Z,7.10
2023-03-06T12:50:30.575Z,7.50
2023-03-06T12:53:06.985Z,7.30
2023-03-06T12:55:47.021Z,7.30
2023-03-06T12:58:31.372Z,7.40
2023-03-06T13:01:06.912Z,7.30
2023-03-06T13:03:49.044Z,7.40
2023-03-06T13:06:51.204Z,7.20
2023-03-06T13:09:31.541Z,7.30
2023-03-06T13:12:34.959Z,7.30
2023-03-06T13:15:37.807Z,7.20
2023-03-06T13:18:22.747Z,7.50
2023-03-06T13:20:53.003Z,7.30
2023-03-06T13:23:43.072Z,7.10
2023-03-06T13:26:09.707Z,7.10
2023-03-06T13:28:46.068Z,7.10
2023-03-06T13:31:26.491Z,7.20
2023-03-06T13:33:55.731Z,7.30
2023-03-06T13:36:29.522Z,7.00
2023-03-06T13:38:57.064Z,6.90
2023-03-06T13:41:23.654Z,7.10
2023-03-06T13:43:53.052Z,7.00
2023-03-06T13:46:28.858Z,6.80
2023-03-06T13:49:10.632Z,7.00
2023-03-06T13:52:04.869Z,7.10
2023-03-06T13:54:54.119Z,7.00
2023-03-06T13:57:48.125Z,7.00
2023-03-06T14:00:33.782Z,7.10
2023-03-06T14:03:25.214Z,7.10
2023-03-06T14:05:52.485Z,7.10
2023-03-06T14:08:26.990Z,7.10
2023-03-06T14:11:13.325Z,7.20
2023-03-06T14:13:48.291Z,7.20
2023-03-06T14:16:24.266Z,6.90
2023-03-06T14:18:53.964Z,6.90
2023-03-06T14:21:39.977Z,6.60
2023-03-06T14:24:06.689Z,6.60
2023-03-06T14:26:40.265Z,6.40
2023-03-06T14:29:19.847Z,6.40
2023-03-06T14:31:49.803Z,6.40
2023-03-06T14:34:25.365Z,6.10
2023-03-06T14:37:05.415Z,6.30
2023-03-06T14:39:39.408Z,6.20
2023-03-06T14:42:24.658Z,6.10
2023-03-06T14:45:03.138Z,5.90
2023-03-06T14:47:36.041Z,5.90
2023-03-06T14:50:19.881Z,5.80
2023-03-06T14:52:47.230Z,5.80
2023-03-06T14:55:22.385Z,5.70
2023-03-06T14:57:56.563Z,5.60
2023-03-06T15:00:26.863Z,5.50
2023-03-06T15:02:55.503Z,5.60
2023-03-06T15:05:29.316Z,5.50
2023-03-06T15:08:01.875Z,5.50
2023-03-06T15:10:31.267Z,5.40
2023-03-06T15:13:27.178Z,5.40
2023-03-06T15:16:01.609Z,5.30
2023-03-06T15:18:35.336Z,5.20
2023-03-06T15:21:09.556Z,5.20
2023-03-06T15:23:39.501Z,5.00
2023-03-06T15:26:29.362Z,4.80
2023-03-06T15:29:19.891Z,4.70
2023-03-06T15:31:46.886Z,4.50
2023-03-06T15:34:18.576Z,4.50
2023-03-06T15:36:48.184Z,4.50
2023-03-06T15:39:41.015Z,4.40
2023-03-06T15:42:07.886Z,4.20
2023-03-06T15:44:34.905Z,4.20
2023-03-06T15:47:09.383Z,4.20
2023-03-06T15:49:38.181Z,4.30
2023-03-06T15:52:06.302Z,4.30
2023-03-06T15:54:33.400Z,4.30
2023-03-06T15:57:00.477Z,4.40
2023-03-06T15:59:33.079Z,4.50
2023-03-06T16:02:10.906Z,4.50
2023-03-06T16:04:37.644Z,4.50
2023-03-06T16:07:04.337Z,4.40
2023-03-06T16:09:32.582Z,4.00
2023-03-06T16:11:59.486Z,4.10
2023-03-06T16:14:26.407Z,4.20
2023-03-06T16:16:54.476Z,4.20
2023-03-06T16:19:27.774Z,4.00
2023-03-06T16:21:56.392Z,4.10
2023-03-06T16:24:23.341Z,4.00
2023-03-06T16:26:52.440Z,4.00
2023-03-06T16:29:24.614Z,4.20
2023-03-06T16:31:51.537Z,4.10
2023-03-06T16:34:21.199Z,4.10
2023-03-06T16:36:49.206Z,4.10
2023-03-06T16:39:20.989Z,4.30
2023-03-06T16:41:49.160Z,4.20
2023-03-06T16:44:16.306Z,4.30
2023-03-06T16:46:45.786Z,4.40
2023-03-06T16:49:25.409Z,4.50
2023-03-06T16:51:52.913Z,4.40
2023-03-06T16:54:20.223Z,4.50
2023-03-06T16:56:46.992Z,4.30
2023-03-06T16:59:13.886Z,4.30
2023-03-06T17:01:44.883Z,4.40
2023-03-06T17:04:11.672Z,4.40
2023-03-06T17:06:38.925Z,4.30
2023-03-06T17:09:05.892Z,4.30
2023-03-06T17:11:32.523Z,4.10
2023-03-06T17:13:59.340Z,4.00
2023-03-06T17:16:26.074Z,4.00
2023-03-06T17:18:54.555Z,4.00
2023-03-06T17:21:21.304Z,4.10
2023-03-06T17:23:48.071Z,4.10
2023-03-06T17:26:18.682Z,4.10
2023-03-06T17:28:45.765Z,4.00
2023-03-06T17:31:12.937Z,4.10
2023-03-06T17:33:39.890Z,4.20
2023-03-06T17:36:07.038Z,4.10
2023-03-06T17:38:34.086Z,4.00
2023-03-06T17:41:05.359Z,3.90
2023-03-06T17:43:32.864Z,4.00
2023-03-06T17:46:07.640Z,4.10
2023-03-06T17:48:34.851Z,4.10
2023-03-06T17:51:02.170Z,3.80
2023-03-06T17:53:28.877Z,3.90
2023-03-06T17:55:57.970Z,4.10
2023-03-06T17:58:26.113Z,4.20
2023-03-06T18:00:53.108Z,3.90
2023-03-06T18:03:19.800Z,4.00
2023-03-06T18:05:46.442Z,4.10
2023-03-06T18:08:13.721Z,4.00
2023-03-06T18:10:41.647Z,4.00
2023-03-06T18:13:09.453Z,3.90
2023-03-06T18:15:40.618Z,4.10
2023-03-06T18:18:08.543Z,4.10
2023-03-06T18:20:40.850Z,4.10
2023-03-06T18:23:07.498Z,4.10
2023-03-06T18:25:34.517Z,4.10
2023-03-06T18:28:01.162Z,4.00
2023-03-06T18:30:27.869Z,4.10
2023-03-06T18:32:54.860Z,4.20
2023-03-06T18:35:21.853Z,4.20
2023-03-06T18:37:48.542Z,4.10
2023-03-06T18:40:15.580Z,3.70
2023-03-06T18:42:42.291Z,3.80
2023-03-06T18:45:10.064Z,3.70
2023-03-06T18:47:36.835Z,3.90
2023-03-06T18:50:03.782Z,3.90
2023-03-06T18:52:30.439Z,4.10
2023-03-06T18:54:57.129Z,3.90
2023-03-06T18:57:23.786Z,3.80
2023-03-06T18:59:50.598Z,3.80
2023-03-06T19:02:17.400Z,4.00
2023-03-06T19:04:44.072Z,4.00
2023-03-06T19:07:13.463Z,3.90
2023-03-06T19:09:40.344Z,3.90
2023-03-06T19:12:07.248Z,3.90
2023-03-06T19:14:34.238Z,4.00
2023-03-06T19:17:01.850Z,4.00
2023-03-06T19:19:29.333Z,4.10
2023-03-06T19:21:59.006Z,4.10
2023-03-06T19:24:25.864Z,4.10
2023-03-06T19:26:52.562Z,4.00
2023-03-06T19:29:19.416Z,3.80
2023-03-06T19:31:46.202Z,4.00
2023-03-06T19:34:12.885Z,3.90
2023-03-06T19:36:40.692Z,3.90
2023-03-06T19:39:08.214Z,3.90
2023-03-06T19:41:35.044Z,3.80
2023-03-06T19:44:03.252Z,3.70
2023-03-06T19:46:31.609Z,3.80
2023-03-06T19:49:00.927Z,3.90
2023-03-06T19:51:28.238Z,3.90
2023-03-06T19:53:56.407Z,3.80
2023-03-06T19:56:28.981Z,3.80
2023-03-06T19:58:56.357Z,3.80
2023-03-06T20:01:24.893Z,3.60
2023-03-06T20:03:58.444Z,3.60
2023-03-06T20:06:31.036Z,3.50
2023-03-06T20:08:57.721Z,3.50
2023-03-06T20:11:29.660Z,3.60
2023-03-06T20:13:58.484Z,3.70
2023-03-06T20:16:27.742Z,3.80
2023-03-06T20:18:55.228Z,3.70
2023-03-06T20:21:23.220Z,3.70
2023-03-06T20:23:50.954Z,3.60
2023-03-06T20:26:18.871Z,3.50
2023-03-06T20:28:45.728Z,3.60
2023-03-06T20:31:17.162Z,3.70
2023-03-06T20:33:44.857Z,3.80
2023-03-06T20:36:13.891Z,3.80
2023-03-06T20:38:40.776Z,3.90
2023-03-06T20:41:08.777Z,3.80
2023-03-06T20:43:35.675Z,3.80
2023-03-06T20:46:03.799Z,3.80
2023-03-06T20:48:30.536Z,3.90
2023-03-06T20:51:05.191Z,3.90
2023-03-06T20:53:32.571Z,3.70
2023-03-06T20:55:59.223Z,3.80
2023-03-06T20:58:28.535Z,3.70
2023-03-06T21:00:55.399Z,3.80
2023-03-06T21:03:22.115Z,3.70
2023-03-06T21:05:48.935Z,3.80
2023-03-06T21:08:16.142Z,3.80
2023-03-06T21:10:45.884Z,3.90
2023-03-06T21:13:13.454Z,3.90
2023-03-06T21:15:41.633Z,3.70
2023-03-06T21:18:09.243Z,3.80
2023-03-06T21:20:39.320Z,3.60
2023-03-06T21:23:06.543Z,3.60
2023-03-06T21:25:33.702Z,3.60
2023-03-06T21:28:00.524Z,3.60
2023-03-06T21:30:30.336Z,3.40
2023-03-06T21:32:56.994Z,3.50
2023-03-06T21:35:23.716Z,3.30
2023-03-06T21:37:50.402Z,3.30
2023-03-06T21:40:17.199Z,3.30
2023-03-06T21:42:43.858Z,3.30
2023-03-06T21:45:10.920Z,3.30
2023-03-06T21:47:38.734Z,3.50
2023-03-06T21:50:07.893Z,3.50
2023-03-06T21:52:34.702Z,3.70
2023-03-06T21:55:01.470Z,3.70
2023-03-06T21:57:28.187Z,3.80
2023-03-06T21:59:54.893Z,3.80
2023-03-06T22:02:21.939Z,3.80
2023-03-06T22:04:52.676Z,3.60
2023-03-06T22:07:20.526Z,3.50
2023-03-06T22:09:47.599Z,3.30
2023-03-06T22:12:14.429Z,3.30
2023-03-06T22:14:43.710Z,3.40
2023-03-06T22:17:10.454Z,3.40
2023-03-06T22:19:37.119Z,3.50
2023-03-06T22:22:04.082Z,3.50
2023-03-06T22:24:31.904Z,3.40
2023-03-06T22:26:58.882Z,3.50
2023-03-06T22:29:25.713Z,3.50
2023-03-06T22:31:52.870Z,3.50
2023-03-06T22:34:19.587Z,3.30
2023-03-06T22:36:46.370Z,3.20
2023-03-06T22:39:13.951Z,3.10
2023-03-06T22:41:41.070Z,3.20
2023-03-06T22:44:07.743Z,3.00
2023-03-06T22:46:34.520Z,3.10
2023-03-06T22:49:02.159Z,3.20
2023-03-06T22:51:29.504Z,3.30
2023-03-06T22:53:56.186Z,3.30
2023-03-06T22:56:23.639Z,3.40
2023-03-06T22:58:50.487Z,3.50
2023-03-06T23:01:20.029Z,3.60
2023-03-06T23:03:52.592Z,3.70
2023-03-06T23:06:22.205Z,3.60
2023-03-06T23:08:51.391Z,3.60
2023-03-06T23:11:19.702Z,3.60
2023-03-06T23:14:05.790Z,3.60
2023-03-06T23:16:51.320Z,3.50
2023-03-06T23:19:36.503Z,3.50
2023-03-06T23:22:21.765Z,3.30
2023-03-06T23:25:07.463Z,3.40
2023-03-06T23:27:35.937Z,3.60
2023-03-06T23:30:04.784Z,3.50
2023-03-06T23:32:34.669Z,3.60
2023-03-06T23:35:01.538Z,3.70
2023-03-06T23:37:28.285Z,3.80
2023-03-06T23:39:55.185Z,3.80
2023-03-06T23:42:22.616Z,3.70
2023-03-06T23:44:49.446Z,3.70
2023-03-06T23:47:17.178Z,3.70
2023-03-06T23:49:43.904Z,3.70
2023-03-06T23:52:10.540Z,3.60
2023-03-06T23:54:37.220Z,3.70
2023-03-06T23:57:04.038Z,3.80
2023-03-06T23:59:30.895Z,3.80
